sensor_id;sensor_type;location;lat;lon;timestamp;temperature;humidity
20155;DHT22;10238;49.556;10.956;2022-10-15T16:18:53;18.70;99.90
20155;DHT22;10238;49.556;10.956;2022-10-15T16:24:29;18.40;99.90
20155;DHT22;10238;49.556;10.956;2022-10-15T16:27:17;18.40;99.90
20155;DHT22;10238;49.556;10.956;2022-10-15T16:30:10;18.40;99.90
20155;DHT22;10238;49.556;10.956;2022-10-15T16:32:58;18.30;99.90
20155;DHT22;10238;49.556;10.956;2022-10-15T16:35:50;18.20;99.90
20155;DHT22;10238;49.556;10.956;2022-10-15T16:38:39;18.00;99.90
20155;DHT22;10238;49.556;10.956;2022-10-15T16:41:28;17.90;99.90
20155;DHT22;10238;49.556;10.956;2022-10-15T16:44:15;17.90;99.90
20155;DHT22;10238;49.556;10.956;2022-10-15T16:47:04;17.80;99.90
20155;DHT22;10238;49.556;10.956;2022-10-15T16:49:55;17.70;99.90
20155;DHT22;10238;49.556;10.956;2022-10-15T16:52:43;17.90;99.90
20155;DHT22;10238;49.556;10.956;2022-10-15T16:55:32;17.40;99.90
20155;DHT22;10238;49.556;10.956;2022-10-15T16:58:22;17.60;99.90
20155;DHT22;10238;49.556;10.956;2022-10-15T17:01:13;17.40;99.90
20155;DHT22;10238;49.556;10.956;2022-10-15T17:04:03;17.30;99.90
20155;DHT22;10238;49.556;10.956;2022-10-15T17:06:51;17.30;99.90
20155;DHT22;10238;49.556;10.956;2022-10-15T17:09:45;17.30;99.90
20155;DHT22;10238;49.556;10.956;2022-10-15T17:12:35;17.20;99.90
20155;DHT22;10238;49.556;10.956;2022-10-15T17:15:26;14.60;99.90
20155;DHT22;10238;49.556;10.956;2022-10-15T17:21:03;16.90;99.90
20155;DHT22;10238;49.556;10.956;2022-10-15T17:23:55;16.90;99.90
20155;DHT22;10238;49.556;10.956;2022-10-15T17:26:46;16.60;99.90
20155;DHT22;10238;49.556;10.956;2022-10-15T17:29:34;16.90;99.90
20155;DHT22;10238;49.556;10.956;2022-10-15T17:32:24;16.90;99.90
20155;DHT22;10238;49.556;10.956;2022-10-15T19:55:08;15.50;99.90
20155;DHT22;10238;49.556;10.956;2022-10-15T19:57:56;15.50;99.90
20155;DHT22;10238;49.556;10.956;2022-10-15T20:00:47;15.50;99.90
20155;DHT22;10238;49.556;10.956;2022-10-15T20:03:35;15.40;99.90
20155;DHT22;10238;49.556;10.956;2022-10-15T20:06:24;15.40;99.90
20155;DHT22;10238;49.556;10.956;2022-10-15T20:09:12;15.40;99.90
20155;DHT22;10238;49.556;10.956;2022-10-15T20:12:02;15.40;99.90
20155;DHT22;10238;49.556;10.956;2022-10-15T20:14:50;15.30;99.90
20155;DHT22;10238;49.556;10.956;2022-10-15T20:17:38;15.30;99.90
20155;DHT22;10238;49.556;10.956;2022-10-15T20:20:28;15.30;99.90
20155;DHT22;10238;49.556;10.956;2022-10-15T20:23:17;15.20;99.90
20155;DHT22;10238;49.556;10.956;2022-10-15T20:26:11;15.20;99.90
20155;DHT22;10238;49.556;10.956;2022-10-15T20:29:04;15.20;99.90
20155;DHT22;10238;49.556;10.956;2022-10-15T20:31:51;15.20;99.90
20155;DHT22;10238;49.556;10.956;2022-10-15T20:35:00;15.20;99.90
20155;DHT22;10238;49.556;10.956;2022-10-15T20:37:48;15.20;99.90
20155;DHT22;10238;49.556;10.956;2022-10-15T20:40:38;15.20;99.90
20155;DHT22;10238;49.556;10.956;2022-10-15T20:43:27;15.20;99.90
20155;DHT22;10238;49.556;10.956;2022-10-15T20:46:18;15.10;99.90
20155;DHT22;10238;49.556;10.956;2022-10-15T20:49:11;15.20;99.90
20155;DHT22;10238;49.556;10.956;2022-10-15T20:52:02;15.10;99.90
20155;DHT22;10238;49.556;10.956;2022-10-15T20:54:50;15.20;99.90
20155;DHT22;10238;49.556;10.956;2022-10-15T20:57:40;15.10;99.90
20155;DHT22;10238;49.556;10.956;2022-10-15T21:00:28;15.10;99.90
20155;DHT22;10238;49.556;10.956;2022-10-15T21:03:17;15.10;99.90
20155;DHT22;10238;49.556;10.956;2022-10-15T21:06:05;15.10;99.90
20155;DHT22;10238;49.556;10.956;2022-10-15T21:08:53;15.10;99.90
20155;DHT22;10238;49.556;10.956;2022-10-15T21:11:41;15.00;99.90
20155;DHT22;10238;49.556;10.956;2022-10-15T21:14:29;15.00;99.90
20155;DHT22;10238;49.556;10.956;2022-10-15T21:17:17;14.90;99.90
20155;DHT22;10238;49.556;10.956;2022-10-15T21:20:07;14.90;99.90
20155;DHT22;10238;49.556;10.956;2022-10-15T21:22:55;14.90;99.90
20155;DHT22;10238;49.556;10.956;2022-10-15T21:25:43;14.80;99.90
20155;DHT22;10238;49.556;10.956;2022-10-15T21:28:31;14.80;99.90
20155;DHT22;10238;49.556;10.956;2022-10-15T21:31:18;14.80;99.90
20155;DHT22;10238;49.556;10.956;2022-10-15T21:34:06;14.70;99.90
20155;DHT22;10238;49.556;10.956;2022-10-15T21:36:55;14.70;99.90
20155;DHT22;10238;49.556;10.956;2022-10-15T21:39:43;14.60;99.90
20155;DHT22;10238;49.556;10.956;2022-10-15T21:42:31;14.60;99.90
20155;DHT22;10238;49.556;10.956;2022-10-15T21:45:18;14.60;99.90
20155;DHT22;10238;49.556;10.956;2022-10-15T21:48:06;14.60;99.90
20155;DHT22;10238;49.556;10.956;2022-10-15T21:50:53;14.60;99.90
20155;DHT22;10238;49.556;10.956;2022-10-15T21:53:43;14.50;99.90
20155;DHT22;10238;49.556;10.956;2022-10-15T21:56:31;14.50;99.90
20155;DHT22;10238;49.556;10.956;2022-10-15T21:59:19;14.50;99.90
20155;DHT22;10238;49.556;10.956;2022-10-15T22:02:07;14.50;99.90
20155;DHT22;10238;49.556;10.956;2022-10-15T22:04:55;14.40;99.90
20155;DHT22;10238;49.556;10.956;2022-10-15T22:07:42;14.40;99.90
20155;DHT22;10238;49.556;10.956;2022-10-15T22:10:31;14.40;99.90
20155;DHT22;10238;49.556;10.956;2022-10-15T22:13:20;14.40;99.90
20155;DHT22;10238;49.556;10.956;2022-10-15T22:16:08;14.30;99.90
20155;DHT22;10238;49.556;10.956;2022-10-15T22:18:57;14.30;99.90
20155;DHT22;10238;49.556;10.956;2022-10-15T22:21:44;14.30;99.90
20155;DHT22;10238;49.556;10.956;2022-10-15T22:24:32;14.30;99.90
20155;DHT22;10238;49.556;10.956;2022-10-15T22:27:21;14.30;99.90
20155;DHT22;10238;49.556;10.956;2022-10-15T22:30:10;14.30;99.90
20155;DHT22;10238;49.556;10.956;2022-10-15T22:32:58;14.30;99.90
20155;DHT22;10238;49.556;10.956;2022-10-15T22:35:46;14.30;99.90
20155;DHT22;10238;49.556;10.956;2022-10-15T22:38:33;14.30;99.90
20155;DHT22;10238;49.556;10.956;2022-10-15T22:41:21;14.30;99.90
20155;DHT22;10238;49.556;10.956;2022-10-15T22:44:13;14.30;99.90
20155;DHT22;10238;49.556;10.956;2022-10-15T22:47:02;14.30;99.90
20155;DHT22;10238;49.556;10.956;2022-10-15T22:49:50;14.30;99.90
20155;DHT22;10238;49.556;10.956;2022-10-15T22:52:38;14.30;99.90
20155;DHT22;10238;49.556;10.956;2022-10-15T22:55:25;14.30;99.90
20155;DHT22;10238;49.556;10.956;2022-10-15T22:58:13;14.30;99.90
20155;DHT22;10238;49.556;10.956;2022-10-15T23:01:10;14.30;99.90
20155;DHT22;10238;49.556;10.956;2022-10-15T23:04:00;14.30;99.90
20155;DHT22;10238;49.556;10.956;2022-10-15T23:06:50;14.40;99.90
20155;DHT22;10238;49.556;10.956;2022-10-15T23:09:37;14.40;99.90
20155;DHT22;10238;49.556;10.956;2022-10-15T23:12:25;14.30;99.90
20155;DHT22;10238;49.556;10.956;2022-10-15T23:15:13;14.30;99.90
20155;DHT22;10238;49.556;10.956;2022-10-15T23:18:02;14.40;99.90
20155;DHT22;10238;49.556;10.956;2022-10-15T23:20:50;14.40;99.90
20155;DHT22;10238;49.556;10.956;2022-10-15T23:23:39;14.30;99.90
20155;DHT22;10238;49.556;10.956;2022-10-15T23:26:28;14.30;99.90
20155;DHT22;10238;49.556;10.956;2022-10-15T23:29:18;14.30;99.90
20155;DHT22;10238;49.556;10.956;2022-10-15T23:32:07;14.30;99.90
20155;DHT22;10238;49.556;10.956;2022-10-15T23:34:56;14.30;99.90
20155;DHT22;10238;49.556;10.956;2022-10-15T23:37:44;14.30;99.90
20155;DHT22;10238;49.556;10.956;2022-10-15T23:40:34;14.40;99.90
20155;DHT22;10238;49.556;10.956;2022-10-15T23:43:21;14.40;99.90
20155;DHT22;10238;49.556;10.956;2022-10-15T23:46:11;14.40;99.90
20155;DHT22;10238;49.556;10.956;2022-10-15T23:48:59;14.40;99.90
20155;DHT22;10238;49.556;10.956;2022-10-15T23:51:48;14.40;99.90
20155;DHT22;10238;49.556;10.956;2022-10-15T23:54:38;14.40;99.90
20155;DHT22;10238;49.556;10.956;2022-10-15T23:57:25;14.40;99.90
